createdAt,value
2022-11-14T00:04:51.681Z,2.51
2022-11-14T00:09:55.828Z,2.44
2022-11-14T00:15:00.215Z,2.35
2022-11-14T00:20:04.148Z,2.32
2022-11-14T00:25:08.354Z,2.24
2022-11-14T00:30:12.508Z,2.25
2022-11-14T00:35:16.679Z,2.25
2022-11-14T00:40:20.812Z,2.18
2022-11-14T00:45:24.964Z,2.12
2022-11-14T00:50:29.139Z,2.10
2022-11-14T00:55:33.307Z,2.07
2022-11-14T01:00:37.541Z,2.06
2022-11-14T01:05:41.644Z,1.98
2022-11-14T01:10:45.801Z,1.95
2022-11-14T01:15:49.988Z,1.92
2022-11-14T01:20:54.172Z,1.84
2022-11-14T01:25:58.303Z,1.84
2022-11-14T01:31:02.476Z,1.81
2022-11-14T01:36:06.625Z,1.79
2022-11-14T01:41:10.787Z,1.78
2022-11-14T01:46:14.981Z,1.76
2022-11-14T01:51:19.118Z,1.69
2022-11-14T01:56:23.310Z,1.64
2022-11-14T02:01:27.495Z,1.65
2022-11-14T02:06:31.649Z,1.61
2022-11-14T02:11:35.819Z,1.55
2022-11-14T02:16:39.948Z,1.51
2022-11-14T02:21:44.112Z,1.45
2022-11-14T02:26:48.281Z,1.63
2022-11-14T02:31:52.480Z,1.62
2022-11-14T02:36:54.710Z,1.53
2022-11-14T02:41:58.899Z,1.46
2022-11-14T02:47:03.057Z,1.32
2022-11-14T02:52:07.236Z,1.28
2022-11-14T02:57:11.405Z,1.36
2022-11-14T03:02:15.540Z,1.32
2022-11-14T03:07:17.871Z,1.21
2022-11-14T03:12:21.969Z,1.18
2022-11-14T03:17:26.157Z,1.12
2022-11-14T03:22:30.324Z,1.14
2022-11-14T03:27:34.484Z,1.23
2022-11-14T03:32:38.633Z,1.26
2022-11-14T03:37:42.796Z,1.25
2022-11-14T03:42:46.955Z,1.33
2022-11-14T03:47:51.125Z,1.30
2022-11-14T03:52:55.312Z,1.26
2022-11-14T03:57:59.472Z,1.30
2022-11-14T04:03:03.625Z,1.32
2022-11-14T04:08:07.813Z,1.37
2022-11-14T04:13:11.988Z,1.40
2022-11-14T04:18:16.128Z,1.41
2022-11-14T04:23:20.313Z,1.35
2022-11-14T04:28:24.469Z,1.36
2022-11-14T04:33:28.653Z,1.29
2022-11-14T04:38:33.141Z,1.18
2022-11-14T04:43:36.971Z,1.13
2022-11-14T04:48:41.148Z,1.16
2022-11-14T04:53:45.306Z,1.20
2022-11-14T04:58:49.423Z,1.22
2022-11-14T05:03:53.607Z,1.30
2022-11-14T05:08:57.809Z,1.21
2022-11-14T05:14:01.951Z,1.14
2022-11-14T05:19:06.123Z,1.07
2022-11-14T05:24:10.260Z,1.08
2022-11-14T05:29:14.416Z,1.14
2022-11-14T05:34:18.620Z,1.16
2022-11-14T05:39:22.761Z,1.18
2022-11-14T05:44:26.954Z,1.14
2022-11-14T05:49:31.108Z,1.09
2022-11-14T05:54:35.298Z,1.05
2022-11-14T05:59:39.444Z,1.03
2022-11-14T06:04:43.580Z,1.03
2022-11-14T06:09:47.770Z,0.98
2022-11-14T06:19:56.092Z,1.04
2022-11-14T06:25:00.295Z,1.16
2022-11-14T06:30:04.446Z,1.17
2022-11-14T06:35:08.605Z,1.17
2022-11-14T06:40:12.767Z,1.17
2022-11-14T06:45:16.922Z,1.16
2022-11-14T06:50:21.124Z,1.16
2022-11-14T06:55:25.760Z,1.20
2022-11-14T07:00:29.432Z,1.25
2022-11-14T07:05:33.584Z,1.26
2022-11-14T07:10:37.784Z,1.28
2022-11-14T07:15:41.941Z,1.30
2022-11-14T07:20:46.092Z,1.37
2022-11-14T07:25:50.269Z,1.41
2022-11-14T07:30:54.444Z,1.42
2022-11-14T07:35:58.576Z,1.50
2022-11-14T07:41:02.749Z,1.58
2022-11-14T07:46:06.907Z,1.61
2022-11-14T07:51:11.103Z,1.63
2022-11-14T07:56:15.250Z,1.62
2022-11-14T08:01:19.479Z,1.64
2022-11-14T08:06:23.568Z,1.75
2022-11-14T08:11:35.146Z,1.83
2022-11-14T08:16:31.936Z,1.91
2022-11-14T08:21:36.124Z,2.04
2022-11-14T08:26:40.206Z,2.13
2022-11-14T08:31:44.407Z,2.28
2022-11-14T08:36:46.643Z,2.43
2022-11-14T08:41:50.901Z,2.50
2022-11-14T08:46:54.974Z,2.56
2022-11-14T08:51:59.159Z,2.76
2022-11-14T08:57:03.346Z,2.94
2022-11-14T09:02:07.576Z,3.11
2022-11-14T09:07:11.674Z,3.26
2022-11-14T09:12:15.841Z,3.54
2022-11-14T09:17:20.026Z,3.87
2022-11-14T09:22:24.130Z,4.19
2022-11-14T09:27:28.291Z,4.45
2022-11-14T09:32:32.482Z,5.03
2022-11-14T09:37:36.646Z,5.21
2022-11-14T09:42:40.815Z,5.60
2022-11-14T09:47:44.973Z,5.84
2022-11-14T09:52:49.124Z,6.05
2022-11-14T09:57:53.299Z,6.24
2022-11-14T10:02:57.459Z,6.44
2022-11-14T10:08:01.626Z,6.51
2022-11-14T10:13:05.808Z,6.62
2022-11-14T10:18:09.960Z,6.71
2022-11-14T10:23:14.122Z,6.83
2022-11-14T10:28:18.267Z,7.00
2022-11-14T10:33:22.442Z,7.13
2022-11-14T10:38:26.604Z,7.18
2022-11-14T10:43:30.758Z,7.25
2022-11-14T10:48:34.917Z,7.30
2022-11-14T10:53:39.084Z,7.37
2022-11-14T10:58:48.983Z,7.47
2022-11-14T11:03:47.462Z,7.64
2022-11-14T11:08:51.828Z,7.76
2022-11-14T11:13:55.739Z,7.91
2022-11-14T11:18:59.871Z,8.08
2022-11-14T11:24:04.153Z,8.24
2022-11-14T11:29:08.222Z,8.45
2022-11-14T11:34:12.376Z,8.54
2022-11-14T11:39:16.550Z,8.78
2022-11-14T11:44:20.726Z,8.99
2022-11-14T11:49:24.842Z,9.12
2022-11-14T11:54:29.023Z,9.01
2022-11-14T11:59:33.159Z,9.17
2022-11-14T12:04:37.340Z,9.29
2022-11-14T12:10:08.748Z,9.42
2022-11-14T12:14:45.659Z,9.32
2022-11-14T12:19:49.849Z,9.52
2022-11-14T12:24:53.988Z,9.35
2022-11-14T12:29:58.169Z,9.18
2022-11-14T12:35:02.443Z,9.31
2022-11-14T12:40:06.459Z,9.31
2022-11-14T12:45:10.636Z,9.40
2022-11-14T12:50:14.775Z,9.51
2022-11-14T12:55:18.998Z,9.61
2022-11-14T13:00:23.125Z,9.56
2022-11-14T13:05:27.282Z,9.54
2022-11-14T13:10:31.426Z,9.56
2022-11-14T13:15:35.618Z,9.37
2022-11-14T13:20:39.763Z,9.35
2022-11-14T13:25:43.919Z,9.27
2022-11-14T13:30:48.123Z,9.36
2022-11-14T13:35:52.240Z,9.37
2022-11-14T13:40:56.403Z,9.45
2022-11-14T13:46:00.557Z,9.43
2022-11-14T13:51:21.927Z,9.42
2022-11-14T13:56:08.897Z,9.47
2022-11-14T14:01:13.409Z,9.49
2022-11-14T14:06:15.312Z,9.48
2022-11-14T14:11:19.624Z,9.38
2022-11-14T14:16:23.690Z,9.32
2022-11-14T14:21:27.809Z,9.35
2022-11-14T14:26:31.980Z,9.41
2022-11-14T14:31:36.119Z,9.48
2022-11-14T14:36:40.282Z,9.51
2022-11-14T14:41:44.448Z,9.39
2022-11-14T14:46:48.602Z,9.30
2022-11-14T14:51:57.242Z,9.23
2022-11-14T14:56:56.926Z,9.18
2022-11-14T15:02:01.153Z,9.13
2022-11-14T15:07:05.389Z,9.03
2022-11-14T15:12:09.404Z,8.98
2022-11-14T15:17:13.608Z,8.97
2022-11-14T15:22:17.769Z,8.87
2022-11-14T15:27:21.918Z,8.87
2022-11-14T15:32:26.073Z,8.72
2022-11-14T15:37:30.223Z,8.70
2022-11-14T15:42:34.419Z,8.69
2022-11-14T15:47:38.555Z,8.69
2022-11-14T15:52:42.732Z,8.69
2022-11-14T15:57:55.867Z,8.64
2022-11-14T16:02:51.016Z,8.59
2022-11-14T16:07:55.217Z,8.59
2022-11-14T16:12:59.509Z,8.59
2022-11-14T16:18:03.496Z,8.57
2022-11-14T16:23:07.688Z,8.53
2022-11-14T16:28:11.853Z,8.49
2022-11-14T16:33:16.028Z,8.48
2022-11-14T16:38:20.217Z,8.44
2022-11-14T16:43:24.319Z,8.45
2022-11-14T16:48:28.481Z,8.47
2022-11-14T16:53:33.089Z,8.45
2022-11-14T16:58:36.799Z,8.52
2022-11-14T17:03:40.972Z,8.48
2022-11-14T17:08:45.243Z,8.46
2022-11-14T17:13:49.298Z,8.43
2022-11-14T17:18:53.485Z,8.45
2022-11-14T17:23:57.646Z,8.47
2022-11-14T17:29:01.808Z,8.38
2022-11-14T17:34:05.966Z,8.38
2022-11-14T17:39:10.101Z,8.39
2022-11-14T17:44:14.310Z,8.37
2022-11-14T17:49:18.464Z,8.36
2022-11-14T17:54:22.605Z,8.33
2022-11-14T17:59:26.768Z,8.45
2022-11-14T18:04:30.931Z,8.46
2022-11-14T18:09:35.140Z,8.51
2022-11-14T18:14:39.247Z,8.42
2022-11-14T18:19:43.438Z,8.38
2022-11-14T18:24:47.582Z,8.40
2022-11-14T18:29:51.744Z,8.41
2022-11-14T18:34:55.925Z,8.42
2022-11-14T18:40:00.062Z,8.48
2022-11-14T18:45:04.240Z,8.45
2022-11-14T18:50:08.379Z,8.51
2022-11-14T18:55:12.560Z,8.49
2022-11-14T19:00:16.785Z,8.51
2022-11-14T19:05:20.905Z,8.56
2022-11-14T19:10:25.124Z,8.54
2022-11-14T19:15:29.229Z,8.56
2022-11-14T19:20:33.373Z,8.56
2022-11-14T19:25:38.186Z,8.53
2022-11-14T19:30:41.711Z,8.51
2022-11-14T19:35:43.990Z,8.50
2022-11-14T19:40:48.156Z,8.38
2022-11-14T19:45:52.303Z,8.25
2022-11-14T19:50:56.445Z,8.15
2022-11-14T19:56:00.602Z,8.05
2022-11-14T20:01:04.841Z,7.97
2022-11-14T20:06:07.057Z,7.87
2022-11-14T20:11:11.206Z,7.70
2022-11-14T20:16:15.369Z,7.65
2022-11-14T20:21:19.525Z,7.55
2022-11-14T20:26:23.676Z,7.50
2022-11-14T20:31:27.825Z,7.39
2022-11-14T20:36:43.907Z,7.21
2022-11-14T20:41:36.187Z,7.20
2022-11-14T20:46:40.333Z,7.12
2022-11-14T20:51:44.462Z,7.07
2022-11-14T20:56:48.647Z,7.09
2022-11-14T21:01:52.832Z,7.09
2022-11-14T21:06:57.045Z,7.23
2022-11-14T21:12:01.136Z,7.21
2022-11-14T21:17:05.303Z,7.12
2022-11-14T21:22:09.495Z,7.05
2022-11-14T21:27:13.648Z,7.11
2022-11-14T21:32:17.805Z,7.23
2022-11-14T21:37:21.932Z,7.32
2022-11-14T21:42:26.095Z,7.43
2022-11-14T21:47:30.358Z,7.56
2022-11-14T21:52:34.461Z,7.70
2022-11-14T21:57:38.583Z,7.83
2022-11-14T22:02:42.744Z,7.93
2022-11-14T22:07:46.925Z,8.08
2022-11-14T22:12:51.051Z,8.19
2022-11-14T22:17:55.263Z,8.32
2022-11-14T22:22:59.412Z,8.43
2022-11-14T22:28:03.566Z,8.56
2022-11-14T22:33:07.729Z,8.65
2022-11-14T22:38:11.883Z,8.76
2022-11-14T22:43:16.046Z,8.90
2022-11-14T22:48:20.237Z,9.08
2022-11-14T22:53:24.360Z,9.23
2022-11-14T22:58:28.564Z,9.23
2022-11-14T23:03:32.890Z,9.37
2022-11-14T23:08:36.972Z,9.47
2022-11-14T23:13:41.031Z,9.53
2022-11-14T23:18:45.176Z,9.58
2022-11-14T23:23:49.370Z,9.74
2022-11-14T23:28:53.521Z,9.73
2022-11-14T23:33:57.650Z,9.69
2022-11-14T23:39:01.851Z,9.76
2022-11-14T23:44:06.011Z,9.84
2022-11-14T23:49:10.153Z,9.87
2022-11-14T23:54:14.329Z,9.97
2022-11-14T23:59:18.473Z,10.10
